createdAt,value
2023-01-11T00:00:05.848Z,89.09
2023-01-11T00:01:01.090Z,89.11
2023-01-11T00:01:56.794Z,89.13
2023-01-11T00:02:51.897Z,89.08
2023-01-11T00:03:48.017Z,88.98
2023-01-11T00:04:42.300Z,88.89
2023-01-11T00:05:37.406Z,88.80
2023-01-11T00:06:32.527Z,88.91
2023-01-11T00:07:27.525Z,88.94
2023-01-11T00:08:22.646Z,88.90
2023-01-11T00:09:17.728Z,88.92
2023-01-11T00:10:14.044Z,88.92
2023-01-11T00:11:07.974Z,88.93
2023-01-11T00:12:02.954Z,89.06
2023-01-11T00:12:58.141Z,89.17
2023-01-11T00:13:53.121Z,89.06
2023-01-11T00:14:48.225Z,88.94
2023-01-11T00:15:43.376Z,88.86
2023-01-11T00:16:38.471Z,88.89
2023-01-11T00:17:33.466Z,89.03
2023-01-11T00:18:28.802Z,89.05
2023-01-11T00:19:23.797Z,89.00
2023-01-11T00:20:19.024Z,88.86
2023-01-11T00:21:13.985Z,88.89
2023-01-11T00:22:09.103Z,88.99
2023-01-11T00:23:04.210Z,88.89
2023-01-11T00:23:59.324Z,88.63
2023-01-11T00:24:54.306Z,88.49
2023-01-11T00:25:49.388Z,88.30
2023-01-11T00:26:44.375Z,88.24
2023-01-11T00:27:39.480Z,88.21
2023-01-11T00:28:34.468Z,88.24
2023-01-11T00:29:29.547Z,88.34
2023-01-11T00:30:24.901Z,88.44
2023-01-11T00:31:20.043Z,88.51
2023-01-11T00:32:14.984Z,88.47
2023-01-11T00:33:10.122Z,88.42
2023-01-11T00:34:05.082Z,88.51
2023-01-11T00:35:00.290Z,88.59
2023-01-11T00:35:55.238Z,88.68
2023-01-11T00:36:52.352Z,88.74
2023-01-11T00:37:47.649Z,88.83
2023-01-11T00:38:42.508Z,88.82
2023-01-11T00:39:37.720Z,88.63
2023-01-11T00:40:32.857Z,88.44
2023-01-11T00:41:27.969Z,88.34
2023-01-11T00:42:23.039Z,88.21
2023-01-11T00:43:18.084Z,88.15
2023-01-11T00:44:13.086Z,88.00
2023-01-11T00:45:08.410Z,87.99
2023-01-11T00:46:03.359Z,87.95
2023-01-11T00:46:58.339Z,88.07
2023-01-11T00:47:53.345Z,88.16
2023-01-11T00:48:48.371Z,88.18
2023-01-11T00:49:43.632Z,88.25
2023-01-11T00:50:39.325Z,88.26
2023-01-11T00:51:34.468Z,88.27
2023-01-11T00:52:30.257Z,88.36
2023-01-11T00:53:25.565Z,88.51
2023-01-11T00:54:20.816Z,88.49
2023-01-11T00:55:16.503Z,88.49
2023-01-11T00:56:11.594Z,88.48
2023-01-11T00:57:06.704Z,88.47
2023-01-11T00:58:03.120Z,88.42
2023-01-11T00:58:58.332Z,88.44
2023-01-11T00:59:54.108Z,88.47
2023-01-11T01:00:49.325Z,88.50
2023-01-11T01:01:44.546Z,88.53
2023-01-11T01:02:40.427Z,88.59
2023-01-11T01:03:35.548Z,88.61
2023-01-11T01:04:31.313Z,88.59
2023-01-11T01:05:26.383Z,88.70
2023-01-11T01:06:21.443Z,88.63
2023-01-11T01:07:17.358Z,88.61
2023-01-11T01:08:12.633Z,88.49
2023-01-11T01:09:07.577Z,88.38
2023-01-11T01:10:04.073Z,88.40
2023-01-11T01:10:59.314Z,88.39
2023-01-11T01:11:55.096Z,88.46
2023-01-11T01:12:50.354Z,88.37
2023-01-11T01:13:45.485Z,88.14
2023-01-11T01:14:41.343Z,88.10
2023-01-11T01:15:36.676Z,88.03
2023-01-11T01:16:32.516Z,88.04
2023-01-11T01:17:27.595Z,87.99
2023-01-11T01:18:22.804Z,87.93
2023-01-11T01:19:18.917Z,87.94
2023-01-11T01:20:13.788Z,87.99
2023-01-11T01:21:08.985Z,87.90
2023-01-11T01:22:05.472Z,87.78
2023-01-11T01:23:00.690Z,87.73
2023-01-11T01:23:56.380Z,87.82
2023-01-11T01:24:51.566Z,87.87
2023-01-11T01:25:46.802Z,87.85
2023-01-11T01:26:42.347Z,87.78
2023-01-11T01:27:37.630Z,87.69
2023-01-11T01:28:33.419Z,87.76
2023-01-11T01:29:28.783Z,87.78
2023-01-11T01:30:23.886Z,87.80
2023-01-11T01:31:19.650Z,87.88
2023-01-11T01:32:14.746Z,87.83
2023-01-11T01:33:09.871Z,87.63
2023-01-11T01:34:06.158Z,87.56
2023-01-11T01:35:01.445Z,87.45
2023-01-11T01:35:57.251Z,87.50
2023-01-11T01:36:52.345Z,87.47
2023-01-11T01:37:47.472Z,87.40
2023-01-11T01:38:42.680Z,87.29
2023-01-11T01:39:37.870Z,87.14
2023-01-11T01:40:34.488Z,86.99
2023-01-11T01:41:29.794Z,87.04
2023-01-11T01:42:25.581Z,87.20
2023-01-11T01:43:20.758Z,87.26
2023-01-11T01:44:15.897Z,87.27
2023-01-11T01:45:11.549Z,87.15
2023-01-11T01:46:06.875Z,87.07
2023-01-11T01:47:02.692Z,86.79
2023-01-11T01:47:57.893Z,86.88
2023-01-11T01:48:53.126Z,86.84
2023-01-11T01:49:48.827Z,86.80
2023-01-11T01:50:44.215Z,86.85
2023-01-11T01:51:39.072Z,86.86
2023-01-11T01:52:35.654Z,86.88
2023-01-11T01:53:31.387Z,86.83
2023-01-11T01:54:26.778Z,86.84
2023-01-11T01:55:22.001Z,86.79
2023-01-11T01:56:17.080Z,86.76
2023-01-11T01:57:12.573Z,86.76
2023-01-11T01:58:07.791Z,86.83
2023-01-11T01:59:02.898Z,86.79
2023-01-11T01:59:57.929Z,86.79
2023-01-11T02:00:53.041Z,86.62
2023-01-11T02:01:49.143Z,86.45
2023-01-11T02:02:44.454Z,86.44
2023-01-11T02:03:39.431Z,86.39
2023-01-11T02:04:34.658Z,86.31
2023-01-11T02:05:29.736Z,86.33
2023-01-11T02:06:24.890Z,86.29
2023-01-11T02:07:19.981Z,86.38
2023-01-11T02:08:14.884Z,86.35
2023-01-11T02:09:09.871Z,86.46
2023-01-11T02:10:04.947Z,86.42
2023-01-11T02:11:00.066Z,86.49
2023-01-11T02:11:55.305Z,86.40
2023-01-11T02:12:50.483Z,86.33
2023-01-11T02:13:45.463Z,86.48
2023-01-11T02:14:40.537Z,86.39
2023-01-11T02:15:35.602Z,86.44
2023-01-11T02:16:30.597Z,86.50
2023-01-11T02:17:25.722Z,86.48
2023-01-11T02:18:20.805Z,86.48
2023-01-11T02:19:15.854Z,86.41
2023-01-11T02:20:10.898Z,86.25
2023-01-11T02:21:06.037Z,86.19
2023-01-11T02:22:01.079Z,86.31
2023-01-11T02:22:56.280Z,86.14
2023-01-11T02:23:51.228Z,86.01
2023-01-11T02:24:46.303Z,86.09
2023-01-11T02:25:41.240Z,85.90
2023-01-11T02:26:36.304Z,85.84
2023-01-11T02:27:31.368Z,85.64
2023-01-11T02:28:26.446Z,85.62
2023-01-11T02:29:21.647Z,85.27
2023-01-11T02:30:16.872Z,84.98
2023-01-11T02:31:11.957Z,85.07
2023-01-11T02:32:07.291Z,85.09
2023-01-11T02:33:02.476Z,84.96
2023-01-11T02:33:57.605Z,84.69
2023-01-11T02:34:52.774Z,84.39
2023-01-11T02:35:49.367Z,84.39
2023-01-11T02:36:44.434Z,84.32
2023-01-11T02:37:39.537Z,84.15
2023-01-11T02:38:34.585Z,84.04
2023-01-11T02:39:29.807Z,83.91
2023-01-11T02:40:24.913Z,83.87
2023-01-11T02:41:20.175Z,83.83
2023-01-11T02:42:15.089Z,83.58
2023-01-11T02:43:10.430Z,83.49
2023-01-11T02:44:05.520Z,83.47
2023-01-11T02:45:00.603Z,83.13
2023-01-11T02:45:55.664Z,83.10
2023-01-11T02:46:50.897Z,83.02
2023-01-11T02:47:51.815Z,83.13
2023-01-11T02:48:47.064Z,83.23
2023-01-11T02:49:42.449Z,83.00
2023-01-11T02:50:38.129Z,83.04
2023-01-11T02:51:33.271Z,83.09
2023-01-11T02:52:28.494Z,83.04
2023-01-11T02:53:24.819Z,83.07
2023-01-11T02:54:19.938Z,83.07
2023-01-11T02:55:15.779Z,82.97
2023-01-11T02:56:10.999Z,82.88
2023-01-11T02:57:06.219Z,82.98
2023-01-11T02:58:02.020Z,83.05
2023-01-11T02:58:57.135Z,83.07
2023-01-11T02:59:53.048Z,83.02
2023-01-11T03:00:48.139Z,83.09
2023-01-11T03:01:43.518Z,82.90
2023-01-11T03:02:39.007Z,83.01
2023-01-11T03:03:34.271Z,83.14
2023-01-11T03:04:29.483Z,83.06
2023-01-11T03:05:25.833Z,82.94
2023-01-11T03:06:21.147Z,82.76
2023-01-11T03:07:16.783Z,82.78
2023-01-11T03:08:11.851Z,82.93
2023-01-11T03:09:07.246Z,82.98
2023-01-11T03:10:03.015Z,83.12
2023-01-11T03:10:58.256Z,83.22
2023-01-11T03:11:54.030Z,83.36
2023-01-11T03:12:49.119Z,83.35
2023-01-11T03:13:44.605Z,83.30
2023-01-11T03:14:40.577Z,83.12
2023-01-11T03:15:35.541Z,82.98
2023-01-11T03:16:30.874Z,82.96
2023-01-11T03:17:27.057Z,83.09
2023-01-11T03:18:22.412Z,83.20
2023-01-11T03:19:18.265Z,83.33
2023-01-11T03:20:13.344Z,83.33
2023-01-11T03:21:08.666Z,83.20
2023-01-11T03:22:04.442Z,83.31
2023-01-11T03:22:59.440Z,83.28
2023-01-11T03:23:55.357Z,83.20
2023-01-11T03:24:50.403Z,83.29
2023-01-11T03:25:45.550Z,83.31
2023-01-11T03:26:41.454Z,83.40
2023-01-11T03:27:36.723Z,83.35
2023-01-11T03:28:31.774Z,83.34
2023-01-11T03:29:28.210Z,83.36
2023-01-11T03:30:23.553Z,83.38
2023-01-11T03:31:19.203Z,83.41
2023-01-11T03:32:14.134Z,83.37
2023-01-11T03:33:09.287Z,83.32
2023-01-11T03:34:05.196Z,83.36
2023-01-11T03:35:00.609Z,83.39
2023-01-11T03:35:56.256Z,83.39
2023-01-11T03:36:51.365Z,83.44
2023-01-11T03:37:46.480Z,83.42
2023-01-11T03:38:42.303Z,83.50
2023-01-11T03:39:37.672Z,83.54
2023-01-11T03:40:32.637Z,83.58
2023-01-11T03:41:29.364Z,83.38
2023-01-11T03:42:24.472Z,83.38
2023-01-11T03:43:20.172Z,83.38
2023-01-11T03:44:15.401Z,83.24
2023-01-11T03:45:10.754Z,83.03
2023-01-11T03:46:06.334Z,82.88
2023-01-11T03:47:01.589Z,82.76
2023-01-11T03:47:56.541Z,82.78
2023-01-11T03:48:51.630Z,82.64
2023-01-11T03:49:46.738Z,82.62
2023-01-11T03:50:41.829Z,82.75
2023-01-11T03:51:36.956Z,82.69
2023-01-11T03:52:32.072Z,82.43
2023-01-11T03:53:27.043Z,82.47
2023-01-11T03:54:26.304Z,82.66
2023-01-11T03:55:21.440Z,82.69
2023-01-11T03:56:16.549Z,82.55
2023-01-11T03:57:12.372Z,82.53
2023-01-11T03:58:07.468Z,82.65
2023-01-11T03:59:02.831Z,82.72
2023-01-11T03:59:59.156Z,82.75
2023-01-11T04:00:54.302Z,82.67
2023-01-11T04:01:50.025Z,82.63
2023-01-11T04:02:45.365Z,82.68
2023-01-11T04:03:40.619Z,82.70
2023-01-11T04:04:36.450Z,82.59
2023-01-11T04:05:31.429Z,82.55
2023-01-11T04:06:26.695Z,82.78
2023-01-11T04:07:21.757Z,82.72
2023-01-11T04:08:17.144Z,82.62
2023-01-11T04:09:12.637Z,82.63
2023-01-11T04:10:07.768Z,82.88
2023-01-11T04:11:02.811Z,82.80
2023-01-11T04:11:58.759Z,82.82
2023-01-11T04:12:53.825Z,82.56
2023-01-11T04:13:49.331Z,82.54
2023-01-11T04:14:44.259Z,82.59
2023-01-11T04:15:39.366Z,82.53
2023-01-11T04:16:34.470Z,82.43
2023-01-11T04:17:29.508Z,82.28
2023-01-11T04:18:24.608Z,82.20
2023-01-11T04:19:19.731Z,82.24
2023-01-11T04:20:14.737Z,82.34
2023-01-11T04:21:09.744Z,82.21
2023-01-11T04:22:04.815Z,82.15
2023-01-11T04:23:00.004Z,82.13
2023-01-11T04:23:55.056Z,82.30
2023-01-11T04:24:50.192Z,82.44
2023-01-11T04:25:45.246Z,82.53
2023-01-11T04:26:40.420Z,82.61
2023-01-11T04:27:35.416Z,82.49
2023-01-11T04:28:30.526Z,82.41
2023-01-11T04:29:25.728Z,82.52
2023-01-11T04:30:21.026Z,82.62
2023-01-11T04:31:15.931Z,82.54
2023-01-11T04:32:11.020Z,82.22
2023-01-11T04:33:06.077Z,82.27
2023-01-11T04:34:01.155Z,82.47
2023-01-11T04:34:56.268Z,82.57
2023-01-11T04:35:51.369Z,82.57
2023-01-11T04:36:46.334Z,82.54
2023-01-11T04:37:41.440Z,82.33
2023-01-11T04:38:36.576Z,82.39
2023-01-11T04:39:31.548Z,82.39
2023-01-11T04:40:26.649Z,82.38
2023-01-11T04:41:23.563Z,82.52
2023-01-11T04:42:17.405Z,82.68
2023-01-11T04:43:12.517Z,82.81
2023-01-11T04:44:08.726Z,82.72
2023-01-11T04:45:03.691Z,82.61
2023-01-11T04:45:59.653Z,82.69
2023-01-11T04:46:55.016Z,82.57
2023-01-11T04:47:49.847Z,82.43
2023-01-11T04:48:45.817Z,82.64
2023-01-11T04:49:40.941Z,82.81
2023-01-11T04:50:36.360Z,82.60
2023-01-11T04:51:32.273Z,82.46
2023-01-11T04:52:27.667Z,82.38
2023-01-11T04:53:23.366Z,82.40
2023-01-11T04:54:18.743Z,82.40
2023-01-11T04:55:13.825Z,82.39
2023-01-11T04:56:09.564Z,82.29
2023-01-11T04:57:04.694Z,82.23
2023-01-11T04:58:00.633Z,82.26
2023-01-11T04:58:55.637Z,82.27
2023-01-11T04:59:50.892Z,82.16
2023-01-11T05:00:47.221Z,82.27
2023-01-11T05:01:41.792Z,82.34
2023-01-11T05:02:36.869Z,81.98
2023-01-11T05:03:33.338Z,81.92
2023-01-11T05:04:28.505Z,81.93
2023-01-11T05:05:24.377Z,81.80
2023-01-11T05:06:19.789Z,81.70
2023-01-11T05:07:14.891Z,81.57
2023-01-11T05:08:10.569Z,81.64
2023-01-11T05:09:05.795Z,81.62
2023-01-11T05:10:01.601Z,81.69
2023-01-11T05:10:56.650Z,81.54
2023-01-11T05:11:52.295Z,81.44
2023-01-11T05:12:47.808Z,81.57
2023-01-11T05:13:43.002Z,81.47
2023-01-11T05:14:38.199Z,81.36
2023-01-11T05:15:34.434Z,81.41
2023-01-11T05:16:29.633Z,81.40
2023-01-11T05:17:25.329Z,81.41
2023-01-11T05:18:20.424Z,81.42
2023-01-11T05:19:15.551Z,81.51
2023-01-11T05:20:11.369Z,81.44
2023-01-11T05:21:06.679Z,81.45
2023-01-11T05:22:02.558Z,81.39
2023-01-11T05:22:57.811Z,81.26
2023-01-11T05:23:53.118Z,81.38
2023-01-11T05:24:48.670Z,81.40
2023-01-11T05:25:43.754Z,81.42
2023-01-11T05:26:39.105Z,81.38
2023-01-11T05:27:35.397Z,81.26
2023-01-11T05:28:30.527Z,81.21
2023-01-11T05:29:26.337Z,81.17
2023-01-11T05:30:21.567Z,81.19
2023-01-11T05:31:17.000Z,81.19
2023-01-11T05:32:12.911Z,81.17
2023-01-11T05:33:07.746Z,81.04
2023-01-11T05:34:03.582Z,81.00
2023-01-11T05:34:58.669Z,80.82
2023-01-11T05:35:54.561Z,80.88
2023-01-11T05:36:49.992Z,80.96
2023-01-11T05:37:45.133Z,80.89
2023-01-11T05:38:40.237Z,80.94
2023-01-11T05:39:36.721Z,81.02
2023-01-11T05:40:31.869Z,81.02
2023-01-11T05:41:26.955Z,80.81
2023-01-11T05:42:22.378Z,80.75
2023-01-11T05:43:17.969Z,80.68
2023-01-11T05:44:13.078Z,80.63
2023-01-11T05:45:08.925Z,80.61
2023-01-11T05:46:04.119Z,80.67
2023-01-11T05:46:59.520Z,80.58
2023-01-11T05:47:55.445Z,80.41
2023-01-11T05:48:50.569Z,80.39
2023-01-11T05:49:45.646Z,80.44
2023-01-11T05:50:42.171Z,80.54
2023-01-11T05:51:37.323Z,80.42
2023-01-11T05:52:33.150Z,80.23
2023-01-11T05:53:28.226Z,80.25
2023-01-11T05:54:23.364Z,80.19
2023-01-11T05:55:19.431Z,80.32
2023-01-11T05:56:14.315Z,80.46
2023-01-11T05:57:10.125Z,80.51
2023-01-11T05:58:05.470Z,80.48
2023-01-11T05:59:00.559Z,80.46
2023-01-11T05:59:55.679Z,80.46
2023-01-11T06:00:51.022Z,80.20
2023-01-11T06:01:46.189Z,80.28
2023-01-11T06:02:41.287Z,80.21
2023-01-11T06:03:37.122Z,80.31
2023-01-11T06:04:32.327Z,80.40
2023-01-11T06:05:27.594Z,80.29
2023-01-11T06:06:23.312Z,80.08
2023-01-11T06:07:18.455Z,80.07
2023-01-11T06:08:13.609Z,80.14
2023-01-11T06:09:08.844Z,80.04
2023-01-11T06:10:03.966Z,80.03
2023-01-11T06:10:58.973Z,80.06
2023-01-11T06:11:54.067Z,80.26
2023-01-11T06:12:49.150Z,80.23
2023-01-11T06:13:44.275Z,80.20
2023-01-11T06:14:39.239Z,80.11
2023-01-11T06:15:34.231Z,80.12
2023-01-11T06:16:29.425Z,80.06
2023-01-11T06:17:24.363Z,80.27
2023-01-11T06:18:19.477Z,80.26
2023-01-11T06:19:14.614Z,80.35
2023-01-11T06:20:09.707Z,80.27
2023-01-11T06:21:04.685Z,80.44
2023-01-11T06:21:59.945Z,80.59
2023-01-11T06:22:54.838Z,80.81
2023-01-11T06:23:50.007Z,80.85
2023-01-11T06:24:45.032Z,80.87
2023-01-11T06:25:46.119Z,80.99
2023-01-11T06:26:41.049Z,81.15
2023-01-11T06:27:36.249Z,81.24
2023-01-11T06:28:31.237Z,81.22
2023-01-11T06:29:26.695Z,81.23
2023-01-11T06:30:21.783Z,81.33
2023-01-11T06:31:17.962Z,81.32
2023-01-11T06:32:12.002Z,81.38
2023-01-11T06:33:07.147Z,81.54
2023-01-11T06:34:02.250Z,81.70
2023-01-11T06:34:57.352Z,81.61
2023-01-11T06:35:52.626Z,81.72
2023-01-11T06:36:47.651Z,81.65
2023-01-11T06:37:42.872Z,81.64
2023-01-11T06:38:37.972Z,81.72
2023-01-11T06:39:33.190Z,81.82
2023-01-11T06:40:28.538Z,81.89
2023-01-11T06:41:23.619Z,81.97
2023-01-11T06:42:18.723Z,82.18
2023-01-11T06:43:13.954Z,82.49
2023-01-11T06:44:09.180Z,82.58
2023-01-11T06:45:04.349Z,82.75
2023-01-11T06:45:59.430Z,82.80
2023-01-11T06:46:54.426Z,82.92
2023-01-11T06:47:49.413Z,82.94
2023-01-11T06:48:44.446Z,82.89
2023-01-11T06:49:39.500Z,82.86
2023-01-11T06:50:34.540Z,82.57
2023-01-11T06:51:29.629Z,82.43
2023-01-11T06:52:24.659Z,82.35
2023-01-11T06:53:19.692Z,81.95
2023-01-11T06:54:14.836Z,81.65
2023-01-11T06:55:10.005Z,81.52
2023-01-11T06:56:05.174Z,81.33
2023-01-11T06:57:00.046Z,81.27
2023-01-11T06:57:55.062Z,80.86
2023-01-11T06:58:50.090Z,80.78
2023-01-11T06:59:45.167Z,80.56
2023-01-11T07:00:40.253Z,80.19
2023-01-11T07:01:35.507Z,80.02
2023-01-11T07:02:30.631Z,79.81
2023-01-11T07:03:28.868Z,79.81
2023-01-11T07:04:23.892Z,79.89
2023-01-11T07:05:19.485Z,79.96
2023-01-11T07:06:13.998Z,79.57
2023-01-11T07:07:09.064Z,79.60
2023-01-11T07:08:04.039Z,79.41
2023-01-11T07:08:59.028Z,79.31
2023-01-11T07:09:54.121Z,79.42
2023-01-11T07:10:49.093Z,79.28
2023-01-11T07:11:44.246Z,81.15
2023-01-11T07:12:39.216Z,80.04
2023-01-11T07:13:34.340Z,80.23
2023-01-11T07:14:30.017Z,79.61
2023-01-11T07:15:25.351Z,78.92
2023-01-11T07:16:20.639Z,79.37
2023-01-11T07:17:16.516Z,78.43
2023-01-11T07:18:11.774Z,77.46
2023-01-11T07:19:07.619Z,77.72
2023-01-11T07:20:02.941Z,77.97
2023-01-11T07:20:58.102Z,78.52
2023-01-11T07:21:53.935Z,78.44
2023-01-11T07:22:49.366Z,77.73
2023-01-11T07:23:44.624Z,77.41
2023-01-11T07:24:41.145Z,77.33
2023-01-11T07:25:36.408Z,77.34
2023-01-11T07:26:32.449Z,77.55
2023-01-11T07:27:27.540Z,77.79
2023-01-11T07:28:23.177Z,77.68
2023-01-11T07:29:18.705Z,77.82
2023-01-11T07:30:14.102Z,78.04
2023-01-11T07:31:09.906Z,78.03
2023-01-11T07:32:05.153Z,77.92
2023-01-11T07:33:00.571Z,77.98
2023-01-11T07:33:56.551Z,78.04
2023-01-11T07:34:51.510Z,78.19
2023-01-11T07:35:46.829Z,78.28
2023-01-11T07:36:43.270Z,78.37
2023-01-11T07:37:38.568Z,78.43
2023-01-11T07:38:34.379Z,78.44
2023-01-11T07:39:42.725Z,78.31
2023-01-11T07:40:26.437Z,78.58
2023-01-11T07:41:21.154Z,78.71
2023-01-11T07:42:16.479Z,78.71
2023-01-11T07:43:11.986Z,78.79
2023-01-11T07:44:07.284Z,78.92
2023-01-11T07:45:03.089Z,78.96
2023-01-11T07:45:58.644Z,79.05
2023-01-11T07:46:54.455Z,79.07
2023-01-11T07:47:49.591Z,79.18
2023-01-11T07:48:44.934Z,79.34
2023-01-11T07:49:40.737Z,79.35
2023-01-11T07:50:36.182Z,79.55
2023-01-11T07:51:31.470Z,79.42
2023-01-11T07:52:27.805Z,79.39
2023-01-11T07:53:23.223Z,79.49
2023-01-11T07:54:19.108Z,79.53
2023-01-11T07:55:14.304Z,79.59
2023-01-11T07:56:09.895Z,79.63
2023-01-11T07:57:05.492Z,79.53
2023-01-11T07:58:00.943Z,79.51
2023-01-11T07:58:56.596Z,79.51
2023-01-11T07:59:51.948Z,79.62
2023-01-11T08:00:47.427Z,79.57
2023-01-11T08:01:42.683Z,79.48
2023-01-11T08:02:38.088Z,79.59
2023-01-11T08:03:34.044Z,79.71
2023-01-11T08:04:29.207Z,79.81
2023-01-11T08:05:25.151Z,79.84
2023-01-11T08:06:20.402Z,79.75
2023-01-11T08:07:15.801Z,79.65
2023-01-11T08:08:11.598Z,79.70
2023-01-11T08:09:06.979Z,79.67
2023-01-11T08:10:02.893Z,79.63
2023-01-11T08:10:58.864Z,79.56
2023-01-11T08:11:54.082Z,79.50
2023-01-11T08:12:51.564Z,79.34
2023-01-11T08:13:45.427Z,79.41
2023-01-11T08:14:40.969Z,79.34
2023-01-11T08:15:36.976Z,79.31
2023-01-11T08:16:32.012Z,79.33
2023-01-11T08:17:27.378Z,79.29
2023-01-11T08:18:22.785Z,79.15
2023-01-11T08:19:18.262Z,79.11
2023-01-11T08:20:14.763Z,78.96
2023-01-11T08:21:09.719Z,78.69
2023-01-11T08:22:05.256Z,78.46
2023-01-11T08:23:00.077Z,78.28
2023-01-11T08:23:55.199Z,78.38
2023-01-11T08:24:50.177Z,77.97
2023-01-11T08:25:45.314Z,77.46
2023-01-11T08:26:40.479Z,77.04
2023-01-11T08:27:35.631Z,76.68
2023-01-11T08:28:30.487Z,77.16
2023-01-11T08:29:25.676Z,77.47
2023-01-11T08:30:20.596Z,77.55
2023-01-11T08:31:15.732Z,77.59
2023-01-11T08:32:10.602Z,77.07
2023-01-11T08:33:05.707Z,76.91
2023-01-11T08:34:03.080Z,76.79
2023-01-11T08:34:58.186Z,76.73
2023-01-11T08:35:53.180Z,76.96
2023-01-11T08:36:48.292Z,77.11
2023-01-11T08:37:43.297Z,76.93
2023-01-11T08:38:38.581Z,77.00
2023-01-11T08:39:33.589Z,76.94
2023-01-11T08:40:28.730Z,76.55
2023-01-11T08:41:23.813Z,76.10
2023-01-11T08:42:18.874Z,75.75
2023-01-11T08:43:14.131Z,74.85
2023-01-11T08:44:09.648Z,74.10
2023-01-11T08:45:05.422Z,73.33
2023-01-11T08:46:00.939Z,72.25
2023-01-11T08:46:56.331Z,71.47
2023-01-11T08:47:52.418Z,70.60
2023-01-11T08:48:47.760Z,69.88
2023-01-11T08:49:43.432Z,69.38
2023-01-11T08:50:38.669Z,70.21
2023-01-11T08:51:34.108Z,70.98
2023-01-11T08:52:29.904Z,71.91
2023-01-11T08:53:25.256Z,72.82
2023-01-11T08:54:20.841Z,73.82
2023-01-11T08:55:16.959Z,74.18
2023-01-11T08:56:12.328Z,74.55
2023-01-11T08:57:08.163Z,75.17
2023-01-11T08:58:03.525Z,75.91
2023-01-11T08:58:59.046Z,76.84
2023-01-11T08:59:54.770Z,77.49
2023-01-11T09:00:50.153Z,78.03
2023-01-11T09:01:45.994Z,78.45
2023-01-11T09:02:41.455Z,78.83
2023-01-11T09:03:37.021Z,79.07
2023-01-11T09:04:32.428Z,79.26
2023-01-11T09:05:27.811Z,79.30
2023-01-11T09:06:23.494Z,79.47
2023-01-11T09:07:18.912Z,79.46
2023-01-11T09:08:14.413Z,79.46
2023-01-11T09:09:09.687Z,79.50
2023-01-11T09:10:06.121Z,79.67
2023-01-11T09:11:01.668Z,79.89
2023-01-11T09:11:58.091Z,80.27
2023-01-11T09:12:52.765Z,80.29
2023-01-11T09:13:48.125Z,80.27
2023-01-11T09:14:43.926Z,80.58
2023-01-11T09:15:39.564Z,80.73
2023-01-11T09:16:35.280Z,80.74
2023-01-11T09:17:30.651Z,80.65
2023-01-11T09:18:26.077Z,80.78
2023-01-11T09:19:22.046Z,80.72
2023-01-11T09:20:17.297Z,80.77
2023-01-11T09:21:12.648Z,80.79
2023-01-11T09:22:09.269Z,80.76
2023-01-11T09:23:04.639Z,80.95
2023-01-11T09:24:00.029Z,80.89
2023-01-11T09:24:55.931Z,80.91
2023-01-11T09:25:50.797Z,80.97
2023-01-11T09:26:45.810Z,81.07
2023-01-11T09:27:41.037Z,80.91
2023-01-11T09:28:36.230Z,80.90
2023-01-11T09:29:31.023Z,80.93
2023-01-11T09:30:26.009Z,80.80
2023-01-11T09:31:21.049Z,80.81
2023-01-11T09:32:16.040Z,80.96
2023-01-11T09:33:11.146Z,80.83
2023-01-11T09:34:06.271Z,80.91
2023-01-11T09:35:02.358Z,80.97
2023-01-11T09:35:56.387Z,81.08
2023-01-11T09:36:51.451Z,81.05
2023-01-11T09:37:49.364Z,80.99
2023-01-11T09:38:44.325Z,81.00
2023-01-11T09:39:39.330Z,80.85
2023-01-11T09:40:34.422Z,80.88
2023-01-11T09:41:29.479Z,80.82
2023-01-11T09:42:24.525Z,80.77
2023-01-11T09:43:19.455Z,80.84
2023-01-11T09:44:14.562Z,80.95
2023-01-11T09:45:09.572Z,80.86
2023-01-11T09:46:06.726Z,81.01
2023-01-11T09:47:00.577Z,81.30
2023-01-11T09:47:55.966Z,81.14
2023-01-11T09:48:51.773Z,81.46
2023-01-11T09:49:47.127Z,80.98
2023-01-11T09:50:42.776Z,80.98
2023-01-11T09:51:38.514Z,80.96
2023-01-11T09:52:33.880Z,81.00
2023-01-11T09:53:29.752Z,81.06
2023-01-11T09:54:25.115Z,81.56
2023-01-11T09:55:20.636Z,81.53
2023-01-11T09:56:16.310Z,81.68
2023-01-11T09:57:11.841Z,81.56
2023-01-11T09:58:07.126Z,82.01
2023-01-11T09:59:03.611Z,81.87
2023-01-11T09:59:59.006Z,81.59
2023-01-11T10:00:54.851Z,81.35
2023-01-11T10:01:50.161Z,81.20
2023-01-11T10:02:45.551Z,81.36
2023-01-11T10:03:41.371Z,81.39
2023-01-11T10:04:36.936Z,81.36
2023-01-11T10:05:32.709Z,81.28
2023-01-11T10:06:27.987Z,81.27
2023-01-11T10:07:23.620Z,81.11
2023-01-11T10:18:28.851Z,80.54
2023-01-11T10:18:32.541Z,80.89
2023-01-11T10:18:39.147Z,80.54
2023-01-11T10:18:39.892Z,80.55
2023-01-11T10:19:16.959Z,80.56
2023-01-11T10:19:39.775Z,80.43
2023-01-11T10:20:24.496Z,80.25
2023-01-11T10:21:18.174Z,80.36
2023-01-11T10:22:13.605Z,80.30
2023-01-11T10:23:08.732Z,80.39
2023-01-11T10:24:03.805Z,80.45
2023-01-11T10:24:58.798Z,80.06
2023-01-11T10:25:53.873Z,80.19
2023-01-11T10:26:49.048Z,80.04
2023-01-11T10:27:44.083Z,79.96
2023-01-11T10:28:39.148Z,79.87
2023-01-11T10:29:34.363Z,79.86
2023-01-11T10:30:29.374Z,79.67
2023-01-11T10:31:24.526Z,79.64
2023-01-11T10:32:19.495Z,79.62
2023-01-11T10:33:14.576Z,79.35
2023-01-11T10:34:09.707Z,79.26
2023-01-11T10:35:04.847Z,78.97
2023-01-11T10:36:01.312Z,79.01
2023-01-11T10:36:56.772Z,78.97
2023-01-11T10:37:51.994Z,78.84
2023-01-11T10:38:48.529Z,78.58
2023-01-11T10:39:43.900Z,78.28
2023-01-11T10:40:39.262Z,77.99
2023-01-11T10:41:35.618Z,78.07
2023-01-11T10:42:30.954Z,78.08
2023-01-11T10:43:26.216Z,77.73
2023-01-11T10:44:21.573Z,77.92
2023-01-11T10:45:16.672Z,77.75
2023-01-11T10:46:11.914Z,77.65
2023-01-11T10:47:06.784Z,77.46
2023-01-11T10:48:01.863Z,77.64
2023-01-11T10:48:56.995Z,77.60
2023-01-11T10:49:52.035Z,77.54
2023-01-11T10:50:47.308Z,77.69
2023-01-11T10:51:42.325Z,77.76
2023-01-11T10:52:37.401Z,77.75
2023-01-11T10:53:32.515Z,78.02
2023-01-11T10:54:27.753Z,77.90
2023-01-11T10:55:22.735Z,77.99
2023-01-11T10:56:17.978Z,78.09
2023-01-11T10:57:12.792Z,78.32
2023-01-11T10:58:07.965Z,78.31
2023-01-11T10:59:03.037Z,78.71
2023-01-11T10:59:58.032Z,79.37
2023-01-11T11:00:53.071Z,79.46
2023-01-11T11:01:48.072Z,79.33
2023-01-11T11:02:43.052Z,79.79
2023-01-11T11:03:38.831Z,79.96
2023-01-11T11:04:36.309Z,80.31
2023-01-11T11:05:31.424Z,80.43
2023-01-11T11:06:26.430Z,80.56
2023-01-11T11:07:21.520Z,80.71
2023-01-11T11:08:16.487Z,80.98
2023-01-11T11:09:11.632Z,81.30
2023-01-11T11:10:06.653Z,81.65
2023-01-11T11:11:01.637Z,81.97
2023-01-11T11:11:56.615Z,82.01
2023-01-11T11:12:51.668Z,82.29
2023-01-11T11:13:47.638Z,82.45
2023-01-11T11:14:43.159Z,82.86
2023-01-11T11:15:39.113Z,82.86
2023-01-11T11:16:34.456Z,82.97
2023-01-11T11:17:30.031Z,83.21
2023-01-11T11:18:25.566Z,83.50
2023-01-11T11:19:20.903Z,83.47
2023-01-11T11:20:16.761Z,83.56
2023-01-11T11:21:12.262Z,83.63
2023-01-11T11:22:07.646Z,83.83
2023-01-11T11:23:03.375Z,83.63
2023-01-11T11:23:58.730Z,83.75
2023-01-11T11:24:54.127Z,84.06
2023-01-11T11:25:50.742Z,83.98
2023-01-11T11:26:45.842Z,84.16
2023-01-11T11:27:41.759Z,84.25
2023-01-11T11:28:37.166Z,84.29
2023-01-11T11:29:32.575Z,84.42
2023-01-11T11:30:28.479Z,84.45
2023-01-11T11:31:23.901Z,84.49
2023-01-11T11:32:19.401Z,84.70
2023-01-11T11:33:14.799Z,84.66
2023-01-11T11:34:10.308Z,84.64
2023-01-11T11:35:06.027Z,84.78
2023-01-11T11:36:01.401Z,84.78
2023-01-11T11:36:56.631Z,84.83
2023-01-11T11:37:53.107Z,84.83
2023-01-11T11:38:48.649Z,84.71
2023-01-11T11:39:44.297Z,84.83
2023-01-11T11:40:39.736Z,84.71
2023-01-11T11:41:35.396Z,84.65
2023-01-11T11:42:30.956Z,84.53
2023-01-11T11:43:26.328Z,84.29
2023-01-11T11:44:22.259Z,84.27
2023-01-11T11:45:17.531Z,84.24
2023-01-11T11:46:15.617Z,84.39
2023-01-11T11:47:08.737Z,84.26
2023-01-11T11:48:02.734Z,83.68
2023-01-11T11:48:57.955Z,83.65
2023-01-11T11:49:54.072Z,83.21
2023-01-11T11:50:49.183Z,83.07
2023-01-11T11:51:44.592Z,83.06
2023-01-11T11:52:40.767Z,83.15
2023-01-11T11:53:36.203Z,83.17
2023-01-11T11:54:31.887Z,83.16
2023-01-11T11:55:27.280Z,83.32
2023-01-11T11:56:22.987Z,82.94
2023-01-11T11:57:18.615Z,82.83
2023-01-11T11:58:13.910Z,82.91
2023-01-11T11:59:09.782Z,82.70